sensor_id;sensor_type;location;lat;lon;timestamp;P1;durP1;ratioP1;P2;durP2;ratioP2
29940;SDS011;16801;53.562;10.038;2024-03-22T00:01:30;12.73;;;10.47;;
29940;SDS011;16801;53.562;10.038;2024-03-22T00:04:51;10.03;;;9.03;;
29940;SDS011;16801;53.562;10.038;2024-03-22T00:08:12;9.47;;;8.27;;
29940;SDS011;16801;53.562;10.038;2024-03-22T00:11:35;13.70;;;9.53;;
29940;SDS011;16801;53.562;10.038;2024-03-22T00:14:56;10.73;;;9.67;;
29940;SDS011;16801;53.562;10.038;2024-03-22T00:18:17;10.33;;;9.23;;
29940;SDS011;16801;53.562;10.038;2024-03-22T00:21:39;13.30;;;8.70;;
29940;SDS011;16801;53.562;10.038;2024-03-22T00:24:59;9.07;;;8.17;;
29940;SDS011;16801;53.562;10.038;2024-03-22T00:28:20;12.97;;;9.17;;
29940;SDS011;16801;53.562;10.038;2024-03-22T00:31:41;10.20;;;8.70;;
29940;SDS011;16801;53.562;10.038;2024-03-22T00:35:02;12.47;;;8.27;;
29940;SDS011;16801;53.562;10.038;2024-03-22T00:38:24;9.70;;;8.70;;
29940;SDS011;16801;53.562;10.038;2024-03-22T00:41:45;10.17;;;8.87;;
29940;SDS011;16801;53.562;10.038;2024-03-22T00:45:06;11.20;;;9.17;;
29940;SDS011;16801;53.562;10.038;2024-03-22T00:48:27;12.67;;;9.93;;
29940;SDS011;16801;53.562;10.038;2024-03-22T00:51:50;10.43;;;9.27;;
29940;SDS011;16801;53.562;10.038;2024-03-22T00:55:12;10.57;;;9.50;;
29940;SDS011;16801;53.562;10.038;2024-03-22T00:58:45;9.20;;;8.17;;
29940;SDS011;16801;53.562;10.038;2024-03-22T01:02:05;10.90;;;8.23;;
29940;SDS011;16801;53.562;10.038;2024-03-22T01:05:27;11.57;;;9.33;;
29940;SDS011;16801;53.562;10.038;2024-03-22T01:08:48;11.27;;;9.83;;
29940;SDS011;16801;53.562;10.038;2024-03-22T01:12:16;10.53;;;9.47;;
29940;SDS011;16801;53.562;10.038;2024-03-22T01:15:38;11.90;;;10.13;;
29940;SDS011;16801;53.562;10.038;2024-03-22T01:19:00;11.80;;;9.27;;
29940;SDS011;16801;53.562;10.038;2024-03-22T01:22:21;11.27;;;9.90;;
29940;SDS011;16801;53.562;10.038;2024-03-22T01:25:42;11.33;;;10.23;;
29940;SDS011;16801;53.562;10.038;2024-03-22T01:29:13;10.47;;;9.37;;
29940;SDS011;16801;53.562;10.038;2024-03-22T01:32:33;10.10;;;9.07;;
29940;SDS011;16801;53.562;10.038;2024-03-22T01:35:58;11.80;;;9.70;;
29940;SDS011;16801;53.562;10.038;2024-03-22T01:39:23;13.93;;;11.50;;
29940;SDS011;16801;53.562;10.038;2024-03-22T01:42:47;12.13;;;10.60;;
29940;SDS011;16801;53.562;10.038;2024-03-22T01:46:09;11.23;;;10.17;;
29940;SDS011;16801;53.562;10.038;2024-03-22T01:49:31;12.23;;;10.77;;
29940;SDS011;16801;53.562;10.038;2024-03-22T01:52:56;16.27;;;10.73;;
29940;SDS011;16801;53.562;10.038;2024-03-22T01:56:18;14.97;;;12.03;;
29940;SDS011;16801;53.562;10.038;2024-03-22T01:59:49;12.47;;;11.17;;
29940;SDS011;16801;53.562;10.038;2024-03-22T02:03:15;13.40;;;12.00;;
29940;SDS011;16801;53.562;10.038;2024-03-22T02:06:36;13.33;;;12.03;;
29940;SDS011;16801;53.562;10.038;2024-03-22T02:09:57;16.37;;;12.13;;
29940;SDS011;16801;53.562;10.038;2024-03-22T02:13:19;12.47;;;11.17;;
29940;SDS011;16801;53.562;10.038;2024-03-22T02:17:41;15.93;;;12.43;;
29940;SDS011;16801;53.562;10.038;2024-03-22T02:21:03;13.97;;;12.47;;
29940;SDS011;16801;53.562;10.038;2024-03-22T02:24:26;15.40;;;13.90;;
29940;SDS011;16801;53.562;10.038;2024-03-22T02:27:47;19.57;;;13.83;;
29940;SDS011;16801;53.562;10.038;2024-03-22T02:31:09;15.70;;;13.37;;
29940;SDS011;16801;53.562;10.038;2024-03-22T02:34:33;14.07;;;12.67;;
29940;SDS011;16801;53.562;10.038;2024-03-22T02:37:53;16.13;;;13.10;;
29940;SDS011;16801;53.562;10.038;2024-03-22T02:41:15;15.90;;;13.83;;
29940;SDS011;16801;53.562;10.038;2024-03-22T02:44:36;15.07;;;13.30;;
29940;SDS011;16801;53.562;10.038;2024-03-22T02:48:02;16.67;;;15.07;;
29940;SDS011;16801;53.562;10.038;2024-03-22T02:51:28;16.97;;;15.27;;
29940;SDS011;16801;53.562;10.038;2024-03-22T02:54:55;18.53;;;16.23;;
29940;SDS011;16801;53.562;10.038;2024-03-22T02:58:17;18.23;;;14.97;;
29940;SDS011;16801;53.562;10.038;2024-03-22T03:01:40;18.93;;;15.87;;
29940;SDS011;16801;53.562;10.038;2024-03-22T03:05:00;19.97;;;17.73;;
29940;SDS011;16801;53.562;10.038;2024-03-22T03:08:22;18.97;;;16.97;;
29940;SDS011;16801;53.562;10.038;2024-03-22T03:11:43;19.33;;;16.50;;
29940;SDS011;16801;53.562;10.038;2024-03-22T03:15:05;18.73;;;16.97;;
29940;SDS011;16801;53.562;10.038;2024-03-22T03:18:26;21.10;;;17.47;;
29940;SDS011;16801;53.562;10.038;2024-03-22T03:21:47;18.97;;;16.70;;
29940;SDS011;16801;53.562;10.038;2024-03-22T03:25:10;19.43;;;17.43;;
29940;SDS011;16801;53.562;10.038;2024-03-22T03:28:31;21.03;;;18.77;;
29940;SDS011;16801;53.562;10.038;2024-03-22T03:31:52;19.77;;;17.53;;
29940;SDS011;16801;53.562;10.038;2024-03-22T03:35:13;20.57;;;18.37;;
29940;SDS011;16801;53.562;10.038;2024-03-22T03:38:34;19.97;;;17.70;;
29940;SDS011;16801;53.562;10.038;2024-03-22T03:41:59;25.00;;;22.30;;
29940;SDS011;16801;53.562;10.038;2024-03-22T03:45:20;19.53;;;17.43;;
29940;SDS011;16801;53.562;10.038;2024-03-22T03:48:46;21.03;;;18.83;;
29940;SDS011;16801;53.562;10.038;2024-03-22T03:52:08;21.27;;;19.07;;
29940;SDS011;16801;53.562;10.038;2024-03-22T03:55:28;26.60;;;21.07;;
29940;SDS011;16801;53.562;10.038;2024-03-22T03:58:51;23.93;;;21.07;;
29940;SDS011;16801;53.562;10.038;2024-03-22T04:02:13;24.67;;;22.00;;
29940;SDS011;16801;53.562;10.038;2024-03-22T04:05:34;20.67;;;18.47;;
29940;SDS011;16801;53.562;10.038;2024-03-22T04:08:56;24.63;;;22.13;;
29940;SDS011;16801;53.562;10.038;2024-03-22T04:12:16;25.67;;;21.37;;
29940;SDS011;16801;53.562;10.038;2024-03-22T04:15:38;21.83;;;19.50;;
29940;SDS011;16801;53.562;10.038;2024-03-22T04:18:59;23.70;;;21.30;;
29940;SDS011;16801;53.562;10.038;2024-03-22T04:22:21;27.07;;;22.73;;
29940;SDS011;16801;53.562;10.038;2024-03-22T04:25:52;23.40;;;20.10;;
29940;SDS011;16801;53.562;10.038;2024-03-22T04:29:14;26.73;;;22.43;;
29940;SDS011;16801;53.562;10.038;2024-03-22T04:32:34;24.73;;;22.10;;
29940;SDS011;16801;53.562;10.038;2024-03-22T04:35:55;27.87;;;23.57;;
29940;SDS011;16801;53.562;10.038;2024-03-22T04:39:18;25.50;;;22.77;;
29940;SDS011;16801;53.562;10.038;2024-03-22T04:42:40;25.30;;;22.70;;
29940;SDS011;16801;53.562;10.038;2024-03-22T04:46:01;24.90;;;20.93;;
29940;SDS011;16801;53.562;10.038;2024-03-22T04:49:22;26.43;;;23.17;;
29940;SDS011;16801;53.562;10.038;2024-03-22T04:52:42;23.07;;;20.10;;
29940;SDS011;16801;53.562;10.038;2024-03-22T04:56:05;30.57;;;24.47;;
29940;SDS011;16801;53.562;10.038;2024-03-22T04:59:27;25.57;;;22.83;;
29940;SDS011;16801;53.562;10.038;2024-03-22T05:02:46;26.37;;;23.37;;
29940;SDS011;16801;53.562;10.038;2024-03-22T05:06:08;25.03;;;22.13;;
29940;SDS011;16801;53.562;10.038;2024-03-22T05:09:29;26.13;;;23.27;;
29940;SDS011;16801;53.562;10.038;2024-03-22T05:12:53;19.70;;;17.50;;
29940;SDS011;16801;53.562;10.038;2024-03-22T05:16:14;26.63;;;23.03;;
29940;SDS011;16801;53.562;10.038;2024-03-22T05:19:35;26.77;;;22.17;;
29940;SDS011;16801;53.562;10.038;2024-03-22T05:22:55;23.23;;;20.73;;
29940;SDS011;16801;53.562;10.038;2024-03-22T05:26:16;27.57;;;21.83;;
29940;SDS011;16801;53.562;10.038;2024-03-22T05:29:39;28.33;;;24.47;;
29940;SDS011;16801;53.562;10.038;2024-03-22T05:32:59;27.47;;;24.07;;
29940;SDS011;16801;53.562;10.038;2024-03-22T05:36:20;27.30;;;23.53;;
29940;SDS011;16801;53.562;10.038;2024-03-22T05:39:41;29.93;;;24.77;;
29940;SDS011;16801;53.562;10.038;2024-03-22T05:43:04;30.27;;;23.73;;
29940;SDS011;16801;53.562;10.038;2024-03-22T05:46:26;28.83;;;23.80;;
29940;SDS011;16801;53.562;10.038;2024-03-22T05:49:47;28.03;;;25.00;;
29940;SDS011;16801;53.562;10.038;2024-03-22T05:53:09;28.73;;;24.47;;
29940;SDS011;16801;53.562;10.038;2024-03-22T05:56:30;30.67;;;24.20;;
29940;SDS011;16801;53.562;10.038;2024-03-22T05:59:50;29.63;;;25.97;;
29940;SDS011;16801;53.562;10.038;2024-03-22T06:03:13;32.27;;;25.90;;
29940;SDS011;16801;53.562;10.038;2024-03-22T06:06:35;28.97;;;25.47;;
29940;SDS011;16801;53.562;10.038;2024-03-22T06:09:55;30.33;;;25.57;;
29940;SDS011;16801;53.562;10.038;2024-03-22T06:13:16;33.47;;;26.70;;
29940;SDS011;16801;53.562;10.038;2024-03-22T06:16:35;29.77;;;26.67;;
29940;SDS011;16801;53.562;10.038;2024-03-22T06:19:58;28.73;;;25.73;;
29940;SDS011;16801;53.562;10.038;2024-03-22T06:23:19;29.23;;;23.57;;
29940;SDS011;16801;53.562;10.038;2024-03-22T06:26:39;31.30;;;27.27;;
29940;SDS011;16801;53.562;10.038;2024-03-22T06:29:59;31.50;;;24.80;;
29940;SDS011;16801;53.562;10.038;2024-03-22T06:33:20;32.17;;;26.67;;
29940;SDS011;16801;53.562;10.038;2024-03-22T06:36:43;32.97;;;25.80;;
29940;SDS011;16801;53.562;10.038;2024-03-22T06:40:03;31.00;;;27.67;;
29940;SDS011;16801;53.562;10.038;2024-03-22T06:43:25;29.57;;;25.67;;
29940;SDS011;16801;53.562;10.038;2024-03-22T06:46:46;32.13;;;26.33;;
29940;SDS011;16801;53.562;10.038;2024-03-22T06:50:07;30.10;;;27.07;;
29940;SDS011;16801;53.562;10.038;2024-03-22T06:53:30;33.50;;;28.27;;
29940;SDS011;16801;53.562;10.038;2024-03-22T06:56:51;28.57;;;25.60;;
29940;SDS011;16801;53.562;10.038;2024-03-22T07:00:12;33.13;;;28.07;;
29940;SDS011;16801;53.562;10.038;2024-03-22T07:03:34;35.27;;;28.67;;
29940;SDS011;16801;53.562;10.038;2024-03-22T07:06:55;31.40;;;27.27;;
29940;SDS011;16801;53.562;10.038;2024-03-22T07:10:17;33.13;;;27.93;;
29940;SDS011;16801;53.562;10.038;2024-03-22T07:13:41;36.93;;;30.97;;
29940;SDS011;16801;53.562;10.038;2024-03-22T07:17:02;31.87;;;28.50;;
29940;SDS011;16801;53.562;10.038;2024-03-22T07:20:22;32.10;;;26.60;;
29940;SDS011;16801;53.562;10.038;2024-03-22T07:23:42;34.67;;;28.17;;
29940;SDS011;16801;53.562;10.038;2024-03-22T07:27:05;38.47;;;31.87;;
29940;SDS011;16801;53.562;10.038;2024-03-22T07:30:25;35.57;;;30.30;;
29940;SDS011;16801;53.562;10.038;2024-03-22T07:33:46;34.63;;;28.40;;
29940;SDS011;16801;53.562;10.038;2024-03-22T07:37:10;32.23;;;27.03;;
29940;SDS011;16801;53.562;10.038;2024-03-22T07:41:00;33.53;;;28.93;;
29940;SDS011;16801;53.562;10.038;2024-03-22T07:44:22;31.07;;;27.70;;
29940;SDS011;16801;53.562;10.038;2024-03-22T07:47:43;34.27;;;28.53;;
29940;SDS011;16801;53.562;10.038;2024-03-22T07:51:04;32.57;;;29.27;;
29940;SDS011;16801;53.562;10.038;2024-03-22T07:54:24;32.93;;;28.10;;
29940;SDS011;16801;53.562;10.038;2024-03-22T07:57:45;40.00;;;28.43;;
29940;SDS011;16801;53.562;10.038;2024-03-22T08:01:07;37.00;;;29.73;;
29940;SDS011;16801;53.562;10.038;2024-03-22T08:04:28;35.13;;;28.20;;
29940;SDS011;16801;53.562;10.038;2024-03-22T08:07:48;40.13;;;31.33;;
29940;SDS011;16801;53.562;10.038;2024-03-22T08:11:10;34.07;;;27.73;;
29940;SDS011;16801;53.562;10.038;2024-03-22T08:14:31;31.50;;;25.20;;
29940;SDS011;16801;53.562;10.038;2024-03-22T08:17:53;39.13;;;31.33;;
29940;SDS011;16801;53.562;10.038;2024-03-22T08:21:15;35.00;;;28.87;;
29940;SDS011;16801;53.562;10.038;2024-03-22T08:24:36;34.20;;;29.77;;
29940;SDS011;16801;53.562;10.038;2024-03-22T08:27:56;34.53;;;29.97;;
29940;SDS011;16801;53.562;10.038;2024-03-22T08:31:17;32.97;;;29.13;;
29940;SDS011;16801;53.562;10.038;2024-03-22T08:34:42;39.87;;;30.57;;
29940;SDS011;16801;53.562;10.038;2024-03-22T08:38:02;39.27;;;33.27;;
29940;SDS011;16801;53.562;10.038;2024-03-22T08:41:24;38.87;;;29.93;;
29940;SDS011;16801;53.562;10.038;2024-03-22T08:44:45;38.17;;;30.37;;
29940;SDS011;16801;53.562;10.038;2024-03-22T08:48:05;34.90;;;29.17;;
29940;SDS011;16801;53.562;10.038;2024-03-22T08:51:28;38.60;;;28.53;;
29940;SDS011;16801;53.562;10.038;2024-03-22T08:54:49;36.37;;;30.40;;
29940;SDS011;16801;53.562;10.038;2024-03-22T08:58:10;36.97;;;31.47;;
29940;SDS011;16801;53.562;10.038;2024-03-22T09:01:31;38.63;;;32.03;;
29940;SDS011;16801;53.562;10.038;2024-03-22T09:04:52;35.50;;;30.00;;
29940;SDS011;16801;53.562;10.038;2024-03-22T09:08:15;37.23;;;31.67;;
29940;SDS011;16801;53.562;10.038;2024-03-22T09:11:36;38.27;;;33.13;;
29940;SDS011;16801;53.562;10.038;2024-03-22T09:14:57;38.77;;;30.67;;
29940;SDS011;16801;53.562;10.038;2024-03-22T09:18:16;36.83;;;32.57;;
29940;SDS011;16801;53.562;10.038;2024-03-22T09:21:37;35.77;;;24.87;;
29940;SDS011;16801;53.562;10.038;2024-03-22T09:24:59;36.53;;;30.83;;
29940;SDS011;16801;53.562;10.038;2024-03-22T09:28:19;33.67;;;28.77;;
29940;SDS011;16801;53.562;10.038;2024-03-22T09:31:40;39.73;;;29.97;;
29940;SDS011;16801;53.562;10.038;2024-03-22T09:35:00;34.23;;;27.60;;
29940;SDS011;16801;53.562;10.038;2024-03-22T09:38:21;35.83;;;29.17;;
29940;SDS011;16801;53.562;10.038;2024-03-22T09:41:42;35.63;;;29.13;;
29940;SDS011;16801;53.562;10.038;2024-03-22T09:45:04;27.40;;;22.13;;
29940;SDS011;16801;53.562;10.038;2024-03-22T09:48:31;29.90;;;23.93;;
29940;SDS011;16801;53.562;10.038;2024-03-22T09:51:53;27.63;;;22.13;;
29940;SDS011;16801;53.562;10.038;2024-03-22T09:55:14;29.47;;;26.17;;
29940;SDS011;16801;53.562;10.038;2024-03-22T09:58:36;30.47;;;26.40;;
29940;SDS011;16801;53.562;10.038;2024-03-22T10:01:57;34.03;;;26.53;;
29940;SDS011;16801;53.562;10.038;2024-03-22T10:05:19;29.33;;;25.57;;
29940;SDS011;16801;53.562;10.038;2024-03-22T10:08:40;37.60;;;28.50;;
29940;SDS011;16801;53.562;10.038;2024-03-22T10:12:01;33.60;;;26.50;;
29940;SDS011;16801;53.562;10.038;2024-03-22T10:15:24;33.73;;;28.03;;
29940;SDS011;16801;53.562;10.038;2024-03-22T10:18:45;37.97;;;29.90;;
29940;SDS011;16801;53.562;10.038;2024-03-22T10:22:07;31.83;;;27.00;;
29940;SDS011;16801;53.562;10.038;2024-03-22T10:25:28;31.73;;;25.10;;
29940;SDS011;16801;53.562;10.038;2024-03-22T10:28:49;31.70;;;26.80;;
29940;SDS011;16801;53.562;10.038;2024-03-22T10:32:11;32.87;;;24.53;;
29940;SDS011;16801;53.562;10.038;2024-03-22T10:35:33;24.67;;;19.67;;
29940;SDS011;16801;53.562;10.038;2024-03-22T10:38:53;24.00;;;19.70;;
29940;SDS011;16801;53.562;10.038;2024-03-22T10:42:16;23.40;;;20.70;;
29940;SDS011;16801;53.562;10.038;2024-03-22T10:45:38;21.60;;;19.30;;
29940;SDS011;16801;53.562;10.038;2024-03-22T10:49:02;19.57;;;17.57;;
29940;SDS011;16801;53.562;10.038;2024-03-22T10:52:25;18.73;;;16.23;;
29940;SDS011;16801;53.562;10.038;2024-03-22T10:55:48;17.30;;;15.60;;
29940;SDS011;16801;53.562;10.038;2024-03-22T10:59:08;17.40;;;15.27;;
29940;SDS011;16801;53.562;10.038;2024-03-22T11:02:34;14.07;;;12.53;;
29940;SDS011;16801;53.562;10.038;2024-03-22T11:05:56;15.00;;;13.23;;
29940;SDS011;16801;53.562;10.038;2024-03-22T11:09:21;13.80;;;12.33;;
29940;SDS011;16801;53.562;10.038;2024-03-22T11:12:41;13.80;;;11.20;;
29940;SDS011;16801;53.562;10.038;2024-03-22T11:16:02;10.67;;;9.60;;
29940;SDS011;16801;53.562;10.038;2024-03-22T11:19:22;10.73;;;9.67;;
29940;SDS011;16801;53.562;10.038;2024-03-22T11:22:44;11.57;;;10.43;;
29940;SDS011;16801;53.562;10.038;2024-03-22T11:26:04;9.17;;;8.27;;
29940;SDS011;16801;53.562;10.038;2024-03-22T11:29:27;8.77;;;7.87;;
29940;SDS011;16801;53.562;10.038;2024-03-22T11:32:48;10.20;;;9.10;;
29940;SDS011;16801;53.562;10.038;2024-03-22T11:36:08;13.27;;;10.70;;
29940;SDS011;16801;53.562;10.038;2024-03-22T11:39:31;8.93;;;8.03;;
29940;SDS011;16801;53.562;10.038;2024-03-22T11:42:52;7.70;;;6.97;;
29940;SDS011;16801;53.562;10.038;2024-03-22T11:46:15;10.80;;;8.47;;
29940;SDS011;16801;53.562;10.038;2024-03-22T11:49:35;9.57;;;8.70;;
29940;SDS011;16801;53.562;10.038;2024-03-22T11:52:56;9.57;;;8.67;;
29940;SDS011;16801;53.562;10.038;2024-03-22T11:56:20;10.20;;;9.07;;
29940;SDS011;16801;53.562;10.038;2024-03-22T11:59:42;8.77;;;7.90;;
29940;SDS011;16801;53.562;10.038;2024-03-22T12:03:03;12.50;;;11.17;;
29940;SDS011;16801;53.562;10.038;2024-03-22T12:06:25;8.83;;;7.93;;
29940;SDS011;16801;53.562;10.038;2024-03-22T12:09:45;11.27;;;9.97;;
29940;SDS011;16801;53.562;10.038;2024-03-22T12:13:08;10.67;;;9.67;;
29940;SDS011;16801;53.562;10.038;2024-03-22T12:16:29;11.97;;;10.83;;
29940;SDS011;16801;53.562;10.038;2024-03-22T12:19:49;10.73;;;9.63;;
29940;SDS011;16801;53.562;10.038;2024-03-22T12:23:10;23.10;;;11.47;;
29940;SDS011;16801;53.562;10.038;2024-03-22T12:26:32;10.13;;;9.13;;
29940;SDS011;16801;53.562;10.038;2024-03-22T12:29:54;10.73;;;9.30;;
29940;SDS011;16801;53.562;10.038;2024-03-22T12:33:15;10.63;;;9.73;;
29940;SDS011;16801;53.562;10.038;2024-03-22T12:36:36;9.57;;;8.60;;
29940;SDS011;16801;53.562;10.038;2024-03-22T12:39:57;9.00;;;7.57;;
29940;SDS011;16801;53.562;10.038;2024-03-22T12:43:17;9.50;;;8.57;;
29940;SDS011;16801;53.562;10.038;2024-03-22T12:46:39;9.10;;;8.20;;
29940;SDS011;16801;53.562;10.038;2024-03-22T12:50:01;9.97;;;9.07;;
29940;SDS011;16801;53.562;10.038;2024-03-22T12:53:24;9.33;;;7.53;;
29940;SDS011;16801;53.562;10.038;2024-03-22T12:56:45;7.43;;;6.80;;
29940;SDS011;16801;53.562;10.038;2024-03-22T13:00:07;6.00;;;5.50;;
29940;SDS011;16801;53.562;10.038;2024-03-22T13:03:35;6.17;;;5.67;;
29940;SDS011;16801;53.562;10.038;2024-03-22T13:07:13;6.00;;;4.90;;
29940;SDS011;16801;53.562;10.038;2024-03-22T13:10:34;4.33;;;3.93;;
29940;SDS011;16801;53.562;10.038;2024-03-22T13:13:55;3.20;;;2.97;;
29940;SDS011;16801;53.562;10.038;2024-03-22T13:17:16;3.63;;;3.33;;
29940;SDS011;16801;53.562;10.038;2024-03-22T13:20:37;3.83;;;3.53;;
29940;SDS011;16801;53.562;10.038;2024-03-22T13:23:58;3.83;;;3.60;;
29940;SDS011;16801;53.562;10.038;2024-03-22T13:27:18;4.70;;;4.30;;
29940;SDS011;16801;53.562;10.038;2024-03-22T13:30:46;2.20;;;2.10;;
29940;SDS011;16801;53.562;10.038;2024-03-22T13:34:06;2.07;;;1.87;;
29940;SDS011;16801;53.562;10.038;2024-03-22T13:37:28;1.57;;;1.47;;
29940;SDS011;16801;53.562;10.038;2024-03-22T13:40:52;2.43;;;2.00;;
29940;SDS011;16801;53.562;10.038;2024-03-22T13:44:13;1.90;;;1.80;;
29940;SDS011;16801;53.562;10.038;2024-03-22T13:47:34;1.57;;;1.47;;
29940;SDS011;16801;53.562;10.038;2024-03-22T13:50:57;1.70;;;1.60;;
29940;SDS011;16801;53.562;10.038;2024-03-22T13:54:19;2.10;;;1.60;;
29940;SDS011;16801;53.562;10.038;2024-03-22T13:57:40;2.00;;;1.90;;
29940;SDS011;16801;53.562;10.038;2024-03-22T14:01:00;1.43;;;1.33;;
29940;SDS011;16801;53.562;10.038;2024-03-22T14:04:22;1.67;;;1.57;;
29940;SDS011;16801;53.562;10.038;2024-03-22T14:07:45;1.00;;;1.00;;
29940;SDS011;16801;53.562;10.038;2024-03-22T14:11:06;1.43;;;1.43;;
29940;SDS011;16801;53.562;10.038;2024-03-22T14:14:27;1.30;;;1.20;;
29940;SDS011;16801;53.562;10.038;2024-03-22T14:17:47;1.73;;;1.63;;
29940;SDS011;16801;53.562;10.038;2024-03-22T14:21:08;2.03;;;1.93;;
29940;SDS011;16801;53.562;10.038;2024-03-22T14:24:31;2.00;;;1.90;;
29940;SDS011;16801;53.562;10.038;2024-03-22T14:27:52;1.73;;;1.63;;
29940;SDS011;16801;53.562;10.038;2024-03-22T14:31:13;1.67;;;1.57;;
29940;SDS011;16801;53.562;10.038;2024-03-22T14:34:33;2.37;;;1.57;;
29940;SDS011;16801;53.562;10.038;2024-03-22T14:37:54;2.20;;;1.63;;
29940;SDS011;16801;53.562;10.038;2024-03-22T14:41:14;1.57;;;1.47;;
29940;SDS011;16801;53.562;10.038;2024-03-22T14:44:36;2.13;;;1.23;;
29940;SDS011;16801;53.562;10.038;2024-03-22T14:47:57;3.43;;;2.47;;
29940;SDS011;16801;53.562;10.038;2024-03-22T14:51:17;3.67;;;2.30;;
29940;SDS011;16801;53.562;10.038;2024-03-22T14:54:38;4.60;;;2.73;;
29940;SDS011;16801;53.562;10.038;2024-03-22T14:58:00;8.20;;;2.67;;
29940;SDS011;16801;53.562;10.038;2024-03-22T15:01:23;11.03;;;3.80;;
29940;SDS011;16801;53.562;10.038;2024-03-22T15:04:43;5.43;;;3.67;;
29940;SDS011;16801;53.562;10.038;2024-03-22T15:08:04;6.97;;;3.50;;
29940;SDS011;16801;53.562;10.038;2024-03-22T15:11:25;7.50;;;2.90;;
29940;SDS011;16801;53.562;10.038;2024-03-22T15:14:46;5.73;;;3.20;;
29940;SDS011;16801;53.562;10.038;2024-03-22T15:18:09;6.70;;;2.90;;
29940;SDS011;16801;53.562;10.038;2024-03-22T15:21:33;8.10;;;4.57;;
29940;SDS011;16801;53.562;10.038;2024-03-22T15:24:55;6.73;;;3.77;;
29940;SDS011;16801;53.562;10.038;2024-03-22T15:28:19;10.37;;;3.90;;
29940;SDS011;16801;53.562;10.038;2024-03-22T15:31:40;13.07;;;4.00;;
29940;SDS011;16801;53.562;10.038;2024-03-22T15:35:01;10.00;;;4.60;;
29940;SDS011;16801;53.562;10.038;2024-03-22T15:38:22;6.97;;;3.87;;
29940;SDS011;16801;53.562;10.038;2024-03-22T15:41:44;14.00;;;4.80;;
29940;SDS011;16801;53.562;10.038;2024-03-22T15:45:04;8.40;;;3.70;;
29940;SDS011;16801;53.562;10.038;2024-03-22T15:48:26;11.77;;;4.93;;
29940;SDS011;16801;53.562;10.038;2024-03-22T15:51:47;7.67;;;3.73;;
29940;SDS011;16801;53.562;10.038;2024-03-22T15:55:08;11.23;;;5.30;;
29940;SDS011;16801;53.562;10.038;2024-03-22T15:58:29;10.50;;;4.17;;
29940;SDS011;16801;53.562;10.038;2024-03-22T16:01:53;10.87;;;5.57;;
29940;SDS011;16801;53.562;10.038;2024-03-22T16:05:13;7.80;;;3.67;;
29940;SDS011;16801;53.562;10.038;2024-03-22T16:08:36;12.53;;;4.17;;
29940;SDS011;16801;53.562;10.038;2024-03-22T16:11:57;17.23;;;4.00;;
29940;SDS011;16801;53.562;10.038;2024-03-22T16:15:17;14.87;;;5.70;;
29940;SDS011;16801;53.562;10.038;2024-03-22T16:18:38;24.80;;;6.53;;
29940;SDS011;16801;53.562;10.038;2024-03-22T16:21:58;8.37;;;5.80;;
29940;SDS011;16801;53.562;10.038;2024-03-22T16:25:20;14.63;;;6.17;;
29940;SDS011;16801;53.562;10.038;2024-03-22T16:28:41;11.93;;;6.90;;
29940;SDS011;16801;53.562;10.038;2024-03-22T16:32:01;13.03;;;5.60;;
29940;SDS011;16801;53.562;10.038;2024-03-22T16:35:23;11.50;;;5.50;;
29940;SDS011;16801;53.562;10.038;2024-03-22T16:38:43;20.47;;;6.47;;
29940;SDS011;16801;53.562;10.038;2024-03-22T16:42:05;10.07;;;5.43;;
29940;SDS011;16801;53.562;10.038;2024-03-22T16:45:27;19.40;;;5.37;;
29940;SDS011;16801;53.562;10.038;2024-03-22T16:48:47;16.30;;;7.93;;
29940;SDS011;16801;53.562;10.038;2024-03-22T16:52:08;16.30;;;7.93;;
29940;SDS011;16801;53.562;10.038;2024-03-22T16:55:30;9.77;;;4.70;;
29940;SDS011;16801;53.562;10.038;2024-03-22T16:58:53;11.10;;;5.27;;
29940;SDS011;16801;53.562;10.038;2024-03-22T17:02:14;11.70;;;6.23;;
29940;SDS011;16801;53.562;10.038;2024-03-22T17:05:35;11.30;;;5.23;;
29940;SDS011;16801;53.562;10.038;2024-03-22T17:08:57;11.80;;;6.23;;
29940;SDS011;16801;53.562;10.038;2024-03-22T17:12:21;7.87;;;4.77;;
29940;SDS011;16801;53.562;10.038;2024-03-22T17:15:42;14.93;;;5.40;;
29940;SDS011;16801;53.562;10.038;2024-03-22T17:19:04;11.93;;;4.63;;
29940;SDS011;16801;53.562;10.038;2024-03-22T17:22:25;11.43;;;5.47;;
29940;SDS011;16801;53.562;10.038;2024-03-22T17:25:46;11.20;;;4.87;;
29940;SDS011;16801;53.562;10.038;2024-03-22T17:29:05;18.20;;;10.50;;
29940;SDS011;16801;53.562;10.038;2024-03-22T17:32:29;17.47;;;8.30;;
29940;SDS011;16801;53.562;10.038;2024-03-22T17:35:50;14.63;;;6.70;;
29940;SDS011;16801;53.562;10.038;2024-03-22T17:39:11;19.90;;;11.40;;
29940;SDS011;16801;53.562;10.038;2024-03-22T17:42:32;14.83;;;6.03;;
29940;SDS011;16801;53.562;10.038;2024-03-22T17:45:56;11.10;;;6.00;;
29940;SDS011;16801;53.562;10.038;2024-03-22T17:49:18;19.77;;;6.10;;
29940;SDS011;16801;53.562;10.038;2024-03-22T17:52:39;12.80;;;5.17;;
29940;SDS011;16801;53.562;10.038;2024-03-22T17:56:00;17.47;;;8.23;;
29940;SDS011;16801;53.562;10.038;2024-03-22T17:59:21;14.60;;;6.77;;
29940;SDS011;16801;53.562;10.038;2024-03-22T18:02:42;14.53;;;8.87;;
29940;SDS011;16801;53.562;10.038;2024-03-22T18:06:03;12.63;;;6.37;;
29940;SDS011;16801;53.562;10.038;2024-03-22T18:09:24;17.43;;;7.53;;
29940;SDS011;16801;53.562;10.038;2024-03-22T18:12:45;10.73;;;5.60;;
29940;SDS011;16801;53.562;10.038;2024-03-22T18:16:06;12.87;;;6.80;;
29940;SDS011;16801;53.562;10.038;2024-03-22T18:19:26;12.07;;;6.50;;
29940;SDS011;16801;53.562;10.038;2024-03-22T18:22:48;15.33;;;7.37;;
29940;SDS011;16801;53.562;10.038;2024-03-22T18:26:09;17.87;;;8.37;;
29940;SDS011;16801;53.562;10.038;2024-03-22T18:29:30;9.33;;;6.83;;
29940;SDS011;16801;53.562;10.038;2024-03-22T18:32:51;17.10;;;6.67;;
29940;SDS011;16801;53.562;10.038;2024-03-22T18:36:12;17.87;;;6.10;;
29940;SDS011;16801;53.562;10.038;2024-03-22T18:39:36;11.93;;;7.03;;
29940;SDS011;16801;53.562;10.038;2024-03-22T18:42:57;17.93;;;6.37;;
29940;SDS011;16801;53.562;10.038;2024-03-22T18:46:18;8.77;;;6.23;;
29940;SDS011;16801;53.562;10.038;2024-03-22T18:49:38;14.07;;;5.70;;
29940;SDS011;16801;53.562;10.038;2024-03-22T18:52:59;12.40;;;6.13;;
29940;SDS011;16801;53.562;10.038;2024-03-22T18:56:21;25.57;;;7.00;;
29940;SDS011;16801;53.562;10.038;2024-03-22T18:59:41;32.07;;;7.77;;
29940;SDS011;16801;53.562;10.038;2024-03-22T19:03:02;18.30;;;6.37;;
29940;SDS011;16801;53.562;10.038;2024-03-22T19:06:23;13.33;;;6.97;;
29940;SDS011;16801;53.562;10.038;2024-03-22T19:09:43;10.10;;;5.17;;
29940;SDS011;16801;53.562;10.038;2024-03-22T19:13:06;16.90;;;7.83;;
29940;SDS011;16801;53.562;10.038;2024-03-22T19:16:27;7.43;;;4.93;;
29940;SDS011;16801;53.562;10.038;2024-03-22T19:19:47;10.43;;;5.93;;
29940;SDS011;16801;53.562;10.038;2024-03-22T19:23:09;8.67;;;6.23;;
29940;SDS011;16801;53.562;10.038;2024-03-22T19:26:30;20.70;;;7.07;;
29940;SDS011;16801;53.562;10.038;2024-03-22T19:29:52;10.80;;;5.07;;
29940;SDS011;16801;53.562;10.038;2024-03-22T19:33:12;16.07;;;6.23;;
29940;SDS011;16801;53.562;10.038;2024-03-22T19:36:35;16.07;;;5.70;;